Impacts METAR Board
IDs:

KJFK - New York/Kennedy Int, NY, US

Updated at: 0300 UTC 16 Aug 2018
Potential Impact None Slight Moderate High
Time 15/15Z 15/16Z 15/17Z 15/18Z 15/19Z 15/20Z 15/21Z 15/22Z 15/23Z 16/00Z 16/01Z 16/02Z 16/03Z
Temp81 85 86 87 88 89 86 87 84 83 81 80 80
Dewpt70 69 69 68 68 64 69 67 71 71 72 73 73
Altim29.92 29.91 29.92 29.91 29.91 29.91 29.91 29.91 29.92 29.94 29.96 29.98 29.98
VIS10 10 10 10 10 10 10 10 10 10 10 10 10
CIG-- -- -- -- -- -- 250 -- -- 250 250 250 250
CoverFEWFEWFEWSCTSCTSCTBKNSCTSCTBKNBKNBKNBKN
FltCatVFRVFRVFRVFRVFRVFRVFRVFRVFRVFRVFRVFRVFR
WX--------------------------
WDir270310250300270290230240240240240240260
WSpd9 8 10 10 8 11 16 9 11 11 10 10 9
WGst15 17 18 -- -- -- -- -- -- -- -- -- --
Raw hourly METARs
KJFK 151451Z 27009G15KT 220V300 10SM FEW030 FEW250 27/21 A2992 RMK AO2 SLP130 T02720211 51008
KJFK 151551Z 31008G17KT 270V330 10SM FEW038 FEW250 29/21 A2991 RMK AO2 SLP129 T02940206
KJFK 151651Z 25010G18KT 10SM FEW043 FEW250 30/21 A2992 RMK AO2 SLP132 T03000206
KJFK 151751Z 30010KT 10SM FEW047 SCT250 31/20 A2991 RMK AO2 SLP130 T03060200 10311 20239 58000
KJFK 151851Z 27008KT 10SM FEW055 SCT250 31/20 A2991 RMK AO2 SLP130 T03110200
KJFK 151951Z 29011KT 10SM FEW055 SCT250 32/18 A2991 RMK AO2 SLP127 T03170178
KJFK 152051Z 23016KT 10SM FEW060 BKN250 30/21 A2991 RMK AO2 SLP126 T03000206 58003
KJFK 152151Z 24009KT 10SM FEW060 SCT250 31/19 A2991 RMK AO2 WSHFT 2105 SLP128 T03060194
KJFK 152251Z 24011KT 10SM FEW060 FEW100 SCT250 29/22 A2992 RMK AO2 SLP131 T02890217
KJFK 152351Z 24011KT 10SM FEW060 BKN250 28/22 A2994 RMK AO2 SLP138 T02830217 10317 20278 53011
KJFK 160051Z 24010KT 10SM FEW060 BKN250 27/22 A2996 RMK AO2 SLP144 T02720222
KJFK 160151Z 24010KT 10SM FEW070 BKN250 27/23 A2998 RMK AO2 SLP151 T02670228
KJFK 160251Z 26009KT 10SM BKN250 27/23 A2998 RMK AO2 SLP150 T02670228 50013



Page loaded:  03:08 UTC  |   08:08 PM Pacific  |   09:08 PM Mountain  |   10:08 PM Central  |   11:08 PM Eastern

 

ADVISORIES

FORECASTS

FORECASTS

OBSERVATIONS

USER TOOLS

ABOUT US